sensor_id;sensor_type;location;lat;lon;timestamp;P1;durP1;ratioP1;P2;durP2;ratioP2
28086;SDS011;15392;48.912;8.380;2023-02-10T00:01:12;8.63;;;8.13;;
28086;SDS011;15392;48.912;8.380;2023-02-10T00:03:39;8.80;;;8.25;;
28086;SDS011;15392;48.912;8.380;2023-02-10T00:06:05;8.55;;;7.95;;
28086;SDS011;15392;48.912;8.380;2023-02-10T00:08:34;8.95;;;8.35;;
28086;SDS011;15392;48.912;8.380;2023-02-10T00:11:00;9.10;;;8.35;;
28086;SDS011;15392;48.912;8.380;2023-02-10T00:13:29;7.68;;;7.18;;
28086;SDS011;15392;48.912;8.380;2023-02-10T00:15:59;8.93;;;8.32;;
28086;SDS011;15392;48.912;8.380;2023-02-10T00:18:28;8.90;;;8.32;;
28086;SDS011;15392;48.912;8.380;2023-02-10T00:20:54;8.45;;;7.95;;
28086;SDS011;15392;48.912;8.380;2023-02-10T00:23:20;8.88;;;8.32;;
28086;SDS011;15392;48.912;8.380;2023-02-10T00:25:46;8.57;;;7.95;;
28086;SDS011;15392;48.912;8.380;2023-02-10T00:28:12;8.10;;;7.60;;
28086;SDS011;15392;48.912;8.380;2023-02-10T00:30:38;8.30;;;7.80;;
28086;SDS011;15392;48.912;8.380;2023-02-10T00:33:04;8.27;;;7.78;;
28086;SDS011;15392;48.912;8.380;2023-02-10T00:35:29;9.38;;;8.70;;
28086;SDS011;15392;48.912;8.380;2023-02-10T00:37:56;9.10;;;8.50;;
28086;SDS011;15392;48.912;8.380;2023-02-10T00:40:21;8.65;;;8.05;;
28086;SDS011;15392;48.912;8.380;2023-02-10T00:42:47;9.05;;;8.45;;
28086;SDS011;15392;48.912;8.380;2023-02-10T00:45:13;9.18;;;8.57;;
28086;SDS011;15392;48.912;8.380;2023-02-10T00:47:39;8.27;;;7.68;;
28086;SDS011;15392;48.912;8.380;2023-02-10T00:50:05;9.00;;;8.40;;
28086;SDS011;15392;48.912;8.380;2023-02-10T00:52:31;8.25;;;7.75;;
28086;SDS011;15392;48.912;8.380;2023-02-10T00:54:57;9.15;;;8.52;;
28086;SDS011;15392;48.912;8.380;2023-02-10T00:57:22;8.93;;;8.32;;
28086;SDS011;15392;48.912;8.380;2023-02-10T00:59:48;9.43;;;8.73;;
28086;SDS011;15392;48.912;8.380;2023-02-10T01:02:14;8.75;;;8.18;;
28086;SDS011;15392;48.912;8.380;2023-02-10T01:04:40;8.98;;;8.38;;
28086;SDS011;15392;48.912;8.380;2023-02-10T01:07:06;9.38;;;8.77;;
28086;SDS011;15392;48.912;8.380;2023-02-10T01:09:32;9.52;;;8.82;;
28086;SDS011;15392;48.912;8.380;2023-02-10T01:11:57;8.60;;;7.90;;
28086;SDS011;15392;48.912;8.380;2023-02-10T01:14:23;8.35;;;7.82;;
28086;SDS011;15392;48.912;8.380;2023-02-10T01:16:50;8.57;;;8.07;;
28086;SDS011;15392;48.912;8.380;2023-02-10T01:19:16;8.32;;;7.80;;
28086;SDS011;15392;48.912;8.380;2023-02-10T01:21:41;9.27;;;8.63;;
28086;SDS011;15392;48.912;8.380;2023-02-10T01:24:07;7.72;;;7.25;;
28086;SDS011;15392;48.912;8.380;2023-02-10T01:26:34;8.63;;;8.02;;
28086;SDS011;15392;48.912;8.380;2023-02-10T01:28:59;8.45;;;7.95;;
28086;SDS011;15392;48.912;8.380;2023-02-10T01:31:25;8.05;;;7.50;;
28086;SDS011;15392;48.912;8.380;2023-02-10T01:33:52;9.18;;;8.57;;
28086;SDS011;15392;48.912;8.380;2023-02-10T01:36:20;8.52;;;7.95;;
28086;SDS011;15392;48.912;8.380;2023-02-10T01:38:49;9.00;;;8.40;;
28086;SDS011;15392;48.912;8.380;2023-02-10T01:41:16;9.77;;;9.07;;
28086;SDS011;15392;48.912;8.380;2023-02-10T01:46:51;8.20;;;7.70;;
28086;SDS011;15392;48.912;8.380;2023-02-10T01:49:18;8.48;;;7.93;;
28086;SDS011;15392;48.912;8.380;2023-02-10T01:51:55;7.82;;;7.43;;
28086;SDS011;15392;48.912;8.380;2023-02-10T01:54:32;8.10;;;7.57;;
28086;SDS011;15392;48.912;8.380;2023-02-10T01:57:06;7.57;;;7.18;;
28086;SDS011;15392;48.912;8.380;2023-02-10T01:59:34;8.15;;;7.65;;
28086;SDS011;15392;48.912;8.380;2023-02-10T02:02:02;8.53;;;8.03;;
28086;SDS011;15392;48.912;8.380;2023-02-10T02:07:18;7.20;;;6.80;;
28086;SDS011;15392;48.912;8.380;2023-02-10T02:09:55;7.93;;;7.43;;
28086;SDS011;15392;48.912;8.380;2023-02-10T02:15:07;7.40;;;7.00;;
28086;SDS011;15392;48.912;8.380;2023-02-10T02:18:00;6.70;;;6.40;;
28086;SDS011;15392;48.912;8.380;2023-02-10T02:21:00;7.70;;;7.20;;
28086;SDS011;15392;48.912;8.380;2023-02-10T02:29:49;7.22;;;6.82;;
28086;SDS011;15392;48.912;8.380;2023-02-10T02:36:08;6.50;;;6.10;;
28086;SDS011;15392;48.912;8.380;2023-02-10T02:38:42;8.18;;;7.57;;
28086;SDS011;15392;48.912;8.380;2023-02-10T02:41:09;8.15;;;7.65;;
28086;SDS011;15392;48.912;8.380;2023-02-10T02:43:35;7.78;;;7.28;;
28086;SDS011;15392;48.912;8.380;2023-02-10T02:48:56;7.82;;;7.32;;
28086;SDS011;15392;48.912;8.380;2023-02-10T02:52:04;6.85;;;6.45;;
28086;SDS011;15392;48.912;8.380;2023-02-10T03:00:23;7.75;;;7.28;;
28086;SDS011;15392;48.912;8.380;2023-02-10T03:02:53;7.70;;;7.20;;
28086;SDS011;15392;48.912;8.380;2023-02-10T03:05:22;7.78;;;7.28;;
28086;SDS011;15392;48.912;8.380;2023-02-10T03:07:54;7.70;;;7.28;;
28086;SDS011;15392;48.912;8.380;2023-02-10T03:10:20;7.85;;;7.43;;
28086;SDS011;15392;48.912;8.380;2023-02-10T03:12:46;7.85;;;7.35;;
28086;SDS011;15392;48.912;8.380;2023-02-10T03:15:13;7.85;;;7.40;;
28086;SDS011;15392;48.912;8.380;2023-02-10T03:17:39;7.53;;;7.13;;
28086;SDS011;15392;48.912;8.380;2023-02-10T03:20:05;7.63;;;7.22;;
28086;SDS011;15392;48.912;8.380;2023-02-10T03:22:32;8.43;;;7.93;;
28086;SDS011;15392;48.912;8.380;2023-02-10T03:24:57;8.32;;;7.82;;
28086;SDS011;15392;48.912;8.380;2023-02-10T03:27:23;8.05;;;7.55;;
28086;SDS011;15392;48.912;8.380;2023-02-10T03:29:49;7.75;;;7.28;;
28086;SDS011;15392;48.912;8.380;2023-02-10T03:32:17;6.63;;;6.32;;
28086;SDS011;15392;48.912;8.380;2023-02-10T03:34:44;7.50;;;7.07;;
28086;SDS011;15392;48.912;8.380;2023-02-10T03:37:10;7.70;;;7.22;;
28086;SDS011;15392;48.912;8.380;2023-02-10T03:39:37;7.05;;;6.65;;
28086;SDS011;15392;48.912;8.380;2023-02-10T03:42:03;7.53;;;7.10;;
28086;SDS011;15392;48.912;8.380;2023-02-10T03:44:29;7.40;;;7.00;;
28086;SDS011;15392;48.912;8.380;2023-02-10T03:46:55;7.97;;;7.47;;
28086;SDS011;15392;48.912;8.380;2023-02-10T03:49:20;7.38;;;6.90;;
28086;SDS011;15392;48.912;8.380;2023-02-10T03:51:46;8.40;;;7.90;;
28086;SDS011;15392;48.912;8.380;2023-02-10T03:54:12;7.57;;;7.18;;
28086;SDS011;15392;48.912;8.380;2023-02-10T03:56:38;7.43;;;7.03;;
28086;SDS011;15392;48.912;8.380;2023-02-10T03:59:04;8.40;;;7.90;;
28086;SDS011;15392;48.912;8.380;2023-02-10T04:01:31;7.03;;;6.63;;
28086;SDS011;15392;48.912;8.380;2023-02-10T04:03:58;8.25;;;7.75;;
28086;SDS011;15392;48.912;8.380;2023-02-10T04:06:24;8.02;;;7.53;;
28086;SDS011;15392;48.912;8.380;2023-02-10T04:08:51;7.70;;;7.20;;
28086;SDS011;15392;48.912;8.380;2023-02-10T04:11:16;8.32;;;7.72;;
28086;SDS011;15392;48.912;8.380;2023-02-10T04:13:42;7.65;;;7.20;;
28086;SDS011;15392;48.912;8.380;2023-02-10T04:16:09;7.55;;;7.15;;
28086;SDS011;15392;48.912;8.380;2023-02-10T04:18:38;7.03;;;6.63;;
28086;SDS011;15392;48.912;8.380;2023-02-10T04:21:05;7.88;;;7.32;;
28086;SDS011;15392;48.912;8.380;2023-02-10T04:23:33;7.13;;;6.63;;
28086;SDS011;15392;48.912;8.380;2023-02-10T04:25:59;6.95;;;6.55;;
28086;SDS011;15392;48.912;8.380;2023-02-10T04:28:25;7.00;;;6.60;;
28086;SDS011;15392;48.912;8.380;2023-02-10T04:30:55;7.40;;;6.90;;
28086;SDS011;15392;48.912;8.380;2023-02-10T04:33:23;7.50;;;7.03;;
28086;SDS011;15392;48.912;8.380;2023-02-10T04:35:51;7.85;;;7.35;;
28086;SDS011;15392;48.912;8.380;2023-02-10T04:38:19;7.45;;;7.05;;
28086;SDS011;15392;48.912;8.380;2023-02-10T04:40:45;7.80;;;7.40;;
28086;SDS011;15392;48.912;8.380;2023-02-10T04:43:12;7.10;;;6.60;;
28086;SDS011;15392;48.912;8.380;2023-02-10T04:45:38;7.45;;;7.05;;
28086;SDS011;15392;48.912;8.380;2023-02-10T04:48:04;7.95;;;7.45;;
28086;SDS011;15392;48.912;8.380;2023-02-10T04:50:31;8.27;;;7.78;;
28086;SDS011;15392;48.912;8.380;2023-02-10T04:52:57;7.68;;;7.28;;
28086;SDS011;15392;48.912;8.380;2023-02-10T04:55:23;7.85;;;7.35;;
28086;SDS011;15392;48.912;8.380;2023-02-10T04:57:48;7.88;;;7.45;;
28086;SDS011;15392;48.912;8.380;2023-02-10T05:00:14;8.00;;;7.50;;
28086;SDS011;15392;48.912;8.380;2023-02-10T05:02:40;8.48;;;7.97;;
28086;SDS011;15392;48.912;8.380;2023-02-10T05:05:06;8.05;;;7.55;;
28086;SDS011;15392;48.912;8.380;2023-02-10T05:07:35;8.18;;;7.68;;
28086;SDS011;15392;48.912;8.380;2023-02-10T05:10:00;8.75;;;8.15;;
28086;SDS011;15392;48.912;8.380;2023-02-10T05:12:26;8.90;;;8.30;;
28086;SDS011;15392;48.912;8.380;2023-02-10T05:14:52;8.43;;;7.90;;
28086;SDS011;15392;48.912;8.380;2023-02-10T05:17:18;8.35;;;7.65;;
28086;SDS011;15392;48.912;8.380;2023-02-10T05:19:44;7.57;;;7.10;;
28086;SDS011;15392;48.912;8.380;2023-02-10T05:22:09;7.85;;;7.35;;
28086;SDS011;15392;48.912;8.380;2023-02-10T05:24:35;8.38;;;7.88;;
28086;SDS011;15392;48.912;8.380;2023-02-10T05:27:01;7.65;;;7.15;;
28086;SDS011;15392;48.912;8.380;2023-02-10T05:29:26;7.93;;;7.40;;
28086;SDS011;15392;48.912;8.380;2023-02-10T05:31:52;8.13;;;7.63;;
28086;SDS011;15392;48.912;8.380;2023-02-10T05:34:18;7.97;;;7.47;;
28086;SDS011;15392;48.912;8.380;2023-02-10T05:36:44;7.40;;;7.00;;
28086;SDS011;15392;48.912;8.380;2023-02-10T05:39:10;7.60;;;7.10;;
28086;SDS011;15392;48.912;8.380;2023-02-10T05:41:52;7.63;;;7.13;;
28086;SDS011;15392;48.912;8.380;2023-02-10T05:44:21;8.05;;;7.55;;
28086;SDS011;15392;48.912;8.380;2023-02-10T05:46:47;8.85;;;8.27;;
28086;SDS011;15392;48.912;8.380;2023-02-10T05:49:14;7.63;;;7.13;;
28086;SDS011;15392;48.912;8.380;2023-02-10T05:51:40;8.07;;;7.57;;
28086;SDS011;15392;48.912;8.380;2023-02-10T05:54:06;8.18;;;7.65;;
28086;SDS011;15392;48.912;8.380;2023-02-10T05:56:32;8.38;;;7.88;;
28086;SDS011;15392;48.912;8.380;2023-02-10T05:58:58;8.43;;;7.90;;
28086;SDS011;15392;48.912;8.380;2023-02-10T06:01:24;8.02;;;7.53;;
28086;SDS011;15392;48.912;8.380;2023-02-10T06:03:49;8.05;;;7.55;;
28086;SDS011;15392;48.912;8.380;2023-02-10T06:06:15;8.70;;;8.10;;
28086;SDS011;15392;48.912;8.380;2023-02-10T06:08:41;7.65;;;7.22;;
28086;SDS011;15392;48.912;8.380;2023-02-10T06:11:07;8.07;;;7.57;;
28086;SDS011;15392;48.912;8.380;2023-02-10T06:13:33;8.52;;;8.02;;
28086;SDS011;15392;48.912;8.380;2023-02-10T06:16:00;8.48;;;7.97;;
28086;SDS011;15392;48.912;8.380;2023-02-10T06:18:29;9.13;;;8.52;;
28086;SDS011;15392;48.912;8.380;2023-02-10T06:20:55;9.18;;;8.57;;
28086;SDS011;15392;48.912;8.380;2023-02-10T06:23:22;9.13;;;8.52;;
28086;SDS011;15392;48.912;8.380;2023-02-10T06:25:49;8.43;;;7.82;;
28086;SDS011;15392;48.912;8.380;2023-02-10T06:30:49;6.95;;;6.55;;
28086;SDS011;15392;48.912;8.380;2023-02-10T06:33:15;8.73;;;8.15;;
28086;SDS011;15392;48.912;8.380;2023-02-10T06:35:41;8.30;;;7.80;;
28086;SDS011;15392;48.912;8.380;2023-02-10T06:38:07;9.05;;;8.45;;
28086;SDS011;15392;48.912;8.380;2023-02-10T06:40:33;8.48;;;7.97;;
28086;SDS011;15392;48.912;8.380;2023-02-10T06:42:59;9.35;;;8.75;;
28086;SDS011;15392;48.912;8.380;2023-02-10T06:45:26;8.82;;;8.25;;
28086;SDS011;15392;48.912;8.380;2023-02-10T06:47:53;9.02;;;8.43;;
28086;SDS011;15392;48.912;8.380;2023-02-10T06:50:19;9.10;;;8.50;;
28086;SDS011;15392;48.912;8.380;2023-02-10T06:52:45;9.25;;;8.65;;
28086;SDS011;15392;48.912;8.380;2023-02-10T06:55:12;8.93;;;8.30;;
28086;SDS011;15392;48.912;8.380;2023-02-10T06:57:38;9.10;;;8.57;;
28086;SDS011;15392;48.912;8.380;2023-02-10T07:00:04;9.20;;;8.60;;
28086;SDS011;15392;48.912;8.380;2023-02-10T07:05:00;7.95;;;7.50;;
28086;SDS011;15392;48.912;8.380;2023-02-10T07:07:31;9.02;;;8.43;;
28086;SDS011;15392;48.912;8.380;2023-02-10T07:09:57;9.38;;;8.77;;
28086;SDS011;15392;48.912;8.380;2023-02-10T07:12:23;14.13;;;12.95;;
28086;SDS011;15392;48.912;8.380;2023-02-10T07:14:52;17.10;;;15.60;;
28086;SDS011;15392;48.912;8.380;2023-02-10T07:17:18;16.25;;;14.88;;
28086;SDS011;15392;48.912;8.380;2023-02-10T07:19:45;14.93;;;13.70;;
28086;SDS011;15392;48.912;8.380;2023-02-10T07:22:10;12.10;;;11.20;;
28086;SDS011;15392;48.912;8.380;2023-02-10T07:24:36;10.30;;;9.50;;
28086;SDS011;15392;48.912;8.380;2023-02-10T07:27:02;10.25;;;9.55;;
28086;SDS011;15392;48.912;8.380;2023-02-10T07:29:28;9.73;;;9.02;;
28086;SDS011;15392;48.912;8.380;2023-02-10T07:31:54;9.50;;;8.80;;
28086;SDS011;15392;48.912;8.380;2023-02-10T07:34:20;9.38;;;8.77;;
28086;SDS011;15392;48.912;8.380;2023-02-10T07:36:46;9.00;;;8.40;;
28086;SDS011;15392;48.912;8.380;2023-02-10T07:39:18;8.85;;;8.25;;
28086;SDS011;15392;48.912;8.380;2023-02-10T07:41:48;8.43;;;7.93;;
28086;SDS011;15392;48.912;8.380;2023-02-10T07:44:15;8.98;;;8.38;;
28086;SDS011;15392;48.912;8.380;2023-02-10T07:46:41;9.98;;;8.93;;
28086;SDS011;15392;48.912;8.380;2023-02-10T07:49:07;9.05;;;8.45;;
28086;SDS011;15392;48.912;8.380;2023-02-10T07:51:33;8.32;;;7.85;;
28086;SDS011;15392;48.912;8.380;2023-02-10T07:53:59;9.68;;;8.98;;
28086;SDS011;15392;48.912;8.380;2023-02-10T07:56:25;9.15;;;8.45;;
28086;SDS011;15392;48.912;8.380;2023-02-10T07:58:50;9.05;;;8.45;;
28086;SDS011;15392;48.912;8.380;2023-02-10T08:01:16;9.00;;;8.40;;
28086;SDS011;15392;48.912;8.380;2023-02-10T08:03:42;8.93;;;8.32;;
28086;SDS011;15392;48.912;8.380;2023-02-10T08:06:08;10.10;;;9.27;;
28086;SDS011;15392;48.912;8.380;2023-02-10T08:08:34;9.48;;;8.68;;
28086;SDS011;15392;48.912;8.380;2023-02-10T08:11:02;9.98;;;9.23;;
28086;SDS011;15392;48.912;8.380;2023-02-10T08:13:32;10.07;;;9.23;;
28086;SDS011;15392;48.912;8.380;2023-02-10T08:15:58;10.60;;;9.85;;
28086;SDS011;15392;48.912;8.380;2023-02-10T08:18:24;10.00;;;9.32;;
28086;SDS011;15392;48.912;8.380;2023-02-10T08:20:50;10.45;;;9.65;;
28086;SDS011;15392;48.912;8.380;2023-02-10T08:23:16;9.85;;;9.18;;
28086;SDS011;15392;48.912;8.380;2023-02-10T08:25:43;10.68;;;9.88;;
28086;SDS011;15392;48.912;8.380;2023-02-10T08:28:09;10.20;;;9.40;;
28086;SDS011;15392;48.912;8.380;2023-02-10T08:30:35;9.85;;;9.10;;
28086;SDS011;15392;48.912;8.380;2023-02-10T08:33:01;10.95;;;10.05;;
28086;SDS011;15392;48.912;8.380;2023-02-10T08:35:27;10.15;;;9.45;;
28086;SDS011;15392;48.912;8.380;2023-02-10T08:37:53;10.50;;;9.65;;
28086;SDS011;15392;48.912;8.380;2023-02-10T08:40:19;10.48;;;9.75;;
28086;SDS011;15392;48.912;8.380;2023-02-10T08:42:45;10.23;;;9.52;;
28086;SDS011;15392;48.912;8.380;2023-02-10T08:45:10;9.20;;;8.55;;
28086;SDS011;15392;48.912;8.380;2023-02-10T08:47:36;9.35;;;8.75;;
28086;SDS011;15392;48.912;8.380;2023-02-10T08:50:02;11.63;;;10.73;;
28086;SDS011;15392;48.912;8.380;2023-02-10T08:52:29;11.20;;;10.30;;
28086;SDS011;15392;48.912;8.380;2023-02-10T08:54:54;12.75;;;11.77;;
28086;SDS011;15392;48.912;8.380;2023-02-10T08:57:21;13.60;;;12.43;;
28086;SDS011;15392;48.912;8.380;2023-02-10T08:59:47;13.15;;;12.05;;
28086;SDS011;15392;48.912;8.380;2023-02-10T09:02:13;11.20;;;10.40;;
28086;SDS011;15392;48.912;8.380;2023-02-10T09:04:40;10.32;;;9.55;;
28086;SDS011;15392;48.912;8.380;2023-02-10T09:07:06;9.32;;;8.63;;
28086;SDS011;15392;48.912;8.380;2023-02-10T09:09:35;9.35;;;8.75;;
28086;SDS011;15392;48.912;8.380;2023-02-10T09:12:04;8.82;;;8.27;;
28086;SDS011;15392;48.912;8.380;2023-02-10T09:14:31;8.52;;;7.97;;
28086;SDS011;15392;48.912;8.380;2023-02-10T09:16:56;7.57;;;7.18;;
28086;SDS011;15392;48.912;8.380;2023-02-10T09:19:22;7.25;;;6.85;;
28086;SDS011;15392;48.912;8.380;2023-02-10T09:21:48;8.10;;;7.50;;
28086;SDS011;15392;48.912;8.380;2023-02-10T09:24:15;7.80;;;7.30;;
28086;SDS011;15392;48.912;8.380;2023-02-10T09:26:42;7.63;;;7.20;;
28086;SDS011;15392;48.912;8.380;2023-02-10T09:29:09;8.05;;;7.55;;
28086;SDS011;15392;48.912;8.380;2023-02-10T09:31:36;8.43;;;7.93;;
28086;SDS011;15392;48.912;8.380;2023-02-10T09:34:02;8.10;;;7.60;;
28086;SDS011;15392;48.912;8.380;2023-02-10T09:36:29;8.35;;;7.85;;
28086;SDS011;15392;48.912;8.380;2023-02-10T09:38:55;8.15;;;7.65;;
28086;SDS011;15392;48.912;8.380;2023-02-10T09:42:26;8.13;;;7.63;;
28086;SDS011;15392;48.912;8.380;2023-02-10T09:44:25;7.20;;;6.70;;
28086;SDS011;15392;48.912;8.380;2023-02-10T09:55:38;6.25;;;5.95;;
28086;SDS011;15392;48.912;8.380;2023-02-10T10:04:04;6.57;;;6.18;;
28086;SDS011;15392;48.912;8.380;2023-02-10T10:06:51;6.28;;;5.97;;
28086;SDS011;15392;48.912;8.380;2023-02-10T10:09:32;7.85;;;7.40;;
28086;SDS011;15392;48.912;8.380;2023-02-10T10:12:16;9.20;;;8.70;;
28086;SDS011;15392;48.912;8.380;2023-02-10T10:14:44;7.97;;;7.57;;
28086;SDS011;15392;48.912;8.380;2023-02-10T10:20:13;8.77;;;8.27;;
28086;SDS011;15392;48.912;8.380;2023-02-10T10:26:38;9.90;;;9.25;;
28086;SDS011;15392;48.912;8.380;2023-02-10T10:29:18;8.77;;;8.27;;
28086;SDS011;15392;48.912;8.380;2023-02-10T10:31:47;8.88;;;8.38;;
28086;SDS011;15392;48.912;8.380;2023-02-10T10:34:25;8.95;;;8.30;;
28086;SDS011;15392;48.912;8.380;2023-02-10T10:36:55;8.30;;;7.82;;
28086;SDS011;15392;48.912;8.380;2023-02-10T10:39:31;8.30;;;7.80;;
28086;SDS011;15392;48.912;8.380;2023-02-10T10:42:12;7.80;;;7.30;;
28086;SDS011;15392;48.912;8.380;2023-02-10T10:44:49;8.32;;;7.85;;
28086;SDS011;15392;48.912;8.380;2023-02-10T10:47:21;8.73;;;8.23;;
28086;SDS011;15392;48.912;8.380;2023-02-10T10:50:11;7.72;;;7.32;;
28086;SDS011;15392;48.912;8.380;2023-02-10T10:52:43;9.45;;;8.85;;
28086;SDS011;15392;48.912;8.380;2023-02-10T10:55:18;9.88;;;9.27;;
28086;SDS011;15392;48.912;8.380;2023-02-10T10:58:01;9.77;;;9.18;;
28086;SDS011;15392;48.912;8.380;2023-02-10T11:00:35;10.60;;;10.00;;
28086;SDS011;15392;48.912;8.380;2023-02-10T11:03:02;10.25;;;9.63;;
28086;SDS011;15392;48.912;8.380;2023-02-10T11:05:31;10.00;;;9.30;;
28086;SDS011;15392;48.912;8.380;2023-02-10T11:08:01;10.50;;;9.80;;
28086;SDS011;15392;48.912;8.380;2023-02-10T11:13:16;9.15;;;8.57;;
28086;SDS011;15392;48.912;8.380;2023-02-10T11:15:57;9.57;;;9.00;;
28086;SDS011;15392;48.912;8.380;2023-02-10T11:18:29;10.98;;;10.27;;
28086;SDS011;15392;48.912;8.380;2023-02-10T11:20:56;10.63;;;9.93;;
28086;SDS011;15392;48.912;8.380;2023-02-10T11:23:25;11.75;;;10.95;;
28086;SDS011;15392;48.912;8.380;2023-02-10T11:28:40;11.30;;;10.57;;
28086;SDS011;15392;48.912;8.380;2023-02-10T11:31:16;11.30;;;10.60;;
28086;SDS011;15392;48.912;8.380;2023-02-10T11:33:58;13.35;;;12.45;;
28086;SDS011;15392;48.912;8.380;2023-02-10T11:36:39;12.02;;;11.13;;
28086;SDS011;15392;48.912;8.380;2023-02-10T11:39:14;12.90;;;11.90;;
28086;SDS011;15392;48.912;8.380;2023-02-10T11:41:44;11.88;;;11.07;;
28086;SDS011;15392;48.912;8.380;2023-02-10T11:47:00;12.27;;;11.48;;
28086;SDS011;15392;48.912;8.380;2023-02-10T11:54:28;11.10;;;10.30;;
28086;SDS011;15392;48.912;8.380;2023-02-10T12:04:02;10.80;;;10.10;;
28086;SDS011;15392;48.912;8.380;2023-02-10T12:09:19;12.73;;;11.77;;
28086;SDS011;15392;48.912;8.380;2023-02-10T12:12:05;11.07;;;10.38;;
28086;SDS011;15392;48.912;8.380;2023-02-10T12:15:03;11.45;;;10.65;;
28086;SDS011;15392;48.912;8.380;2023-02-10T12:21:18;11.38;;;10.52;;
28086;SDS011;15392;48.912;8.380;2023-02-10T12:27:07;10.73;;;9.93;;
28086;SDS011;15392;48.912;8.380;2023-02-10T12:29:52;10.43;;;9.73;;
28086;SDS011;15392;48.912;8.380;2023-02-10T12:32:43;10.30;;;9.65;;
28086;SDS011;15392;48.912;8.380;2023-02-10T12:35:31;11.30;;;10.50;;
28086;SDS011;15392;48.912;8.380;2023-02-10T12:44:28;10.18;;;9.57;;
28086;SDS011;15392;48.912;8.380;2023-02-10T12:53:16;9.27;;;8.70;;
28086;SDS011;15392;48.912;8.380;2023-02-10T12:55:51;9.60;;;8.85;;
28086;SDS011;15392;48.912;8.380;2023-02-10T12:58:46;9.63;;;9.02;;
28086;SDS011;15392;48.912;8.380;2023-02-10T13:01:25;10.02;;;9.32;;
28086;SDS011;15392;48.912;8.380;2023-02-10T13:04:22;9.48;;;8.90;;
28086;SDS011;15392;48.912;8.380;2023-02-10T13:07:04;8.57;;;8.05;;
28086;SDS011;15392;48.912;8.380;2023-02-10T13:12:33;11.25;;;10.50;;
28086;SDS011;15392;48.912;8.380;2023-02-10T13:15:05;10.57;;;9.88;;
28086;SDS011;15392;48.912;8.380;2023-02-10T13:17:49;10.60;;;9.93;;
28086;SDS011;15392;48.912;8.380;2023-02-10T13:23:21;10.20;;;9.50;;
28086;SDS011;15392;48.912;8.380;2023-02-10T13:31:43;11.45;;;10.65;;
28086;SDS011;15392;48.912;8.380;2023-02-10T13:34:27;10.57;;;9.90;;
28086;SDS011;15392;48.912;8.380;2023-02-10T13:37:03;10.45;;;9.82;;
28086;SDS011;15392;48.912;8.380;2023-02-10T13:39:32;9.32;;;8.73;;
28086;SDS011;15392;48.912;8.380;2023-02-10T13:42:15;9.38;;;8.77;;
28086;SDS011;15392;48.912;8.380;2023-02-10T13:52:55;8.98;;;8.48;;
28086;SDS011;15392;48.912;8.380;2023-02-10T13:58:16;9.48;;;8.88;;
28086;SDS011;15392;48.912;8.380;2023-02-10T14:00:52;10.02;;;9.32;;
28086;SDS011;15392;48.912;8.380;2023-02-10T14:03:21;9.23;;;8.63;;
28086;SDS011;15392;48.912;8.380;2023-02-10T14:06:02;9.02;;;8.50;;
28086;SDS011;15392;48.912;8.380;2023-02-10T14:16:29;9.27;;;8.75;;
28086;SDS011;15392;48.912;8.380;2023-02-10T14:19:06;9.23;;;8.63;;
28086;SDS011;15392;48.912;8.380;2023-02-10T14:21:49;9.10;;;8.45;;
28086;SDS011;15392;48.912;8.380;2023-02-10T14:24:25;9.15;;;8.55;;
28086;SDS011;15392;48.912;8.380;2023-02-10T14:27:00;9.32;;;8.63;;
28086;SDS011;15392;48.912;8.380;2023-02-10T14:29:31;8.82;;;8.32;;
28086;SDS011;15392;48.912;8.380;2023-02-10T14:32:03;9.05;;;8.50;;
28086;SDS011;15392;48.912;8.380;2023-02-10T14:34:34;9.75;;;9.10;;
28086;SDS011;15392;48.912;8.380;2023-02-10T14:37:15;9.77;;;9.07;;
28086;SDS011;15392;48.912;8.380;2023-02-10T14:39:59;8.93;;;8.38;;
28086;SDS011;15392;48.912;8.380;2023-02-10T14:42:28;9.35;;;8.75;;
28086;SDS011;15392;48.912;8.380;2023-02-10T14:44:56;10.05;;;9.35;;
28086;SDS011;15392;48.912;8.380;2023-02-10T14:47:27;9.90;;;9.20;;
28086;SDS011;15392;48.912;8.380;2023-02-10T14:49:58;8.98;;;8.38;;
28086;SDS011;15392;48.912;8.380;2023-02-10T14:54:54;8.57;;;8.07;;
28086;SDS011;15392;48.912;8.380;2023-02-10T14:57:22;9.30;;;8.70;;
28086;SDS011;15392;48.912;8.380;2023-02-10T14:59:57;9.10;;;8.50;;
28086;SDS011;15392;48.912;8.380;2023-02-10T15:02:25;9.27;;;8.68;;
28086;SDS011;15392;48.912;8.380;2023-02-10T15:04:54;8.70;;;8.18;;
28086;SDS011;15392;48.912;8.380;2023-02-10T15:07:31;9.95;;;9.25;;
28086;SDS011;15392;48.912;8.380;2023-02-10T15:10:14;9.55;;;8.80;;
28086;SDS011;15392;48.912;8.380;2023-02-10T15:12:56;8.38;;;7.88;;
28086;SDS011;15392;48.912;8.380;2023-02-10T15:15:37;8.65;;;8.15;;
28086;SDS011;15392;48.912;8.380;2023-02-10T15:18:07;8.48;;;7.97;;
28086;SDS011;15392;48.912;8.380;2023-02-10T15:20:58;8.48;;;7.93;;
28086;SDS011;15392;48.912;8.380;2023-02-10T15:23:29;8.95;;;8.35;;
28086;SDS011;15392;48.912;8.380;2023-02-10T15:26:04;9.07;;;8.55;;
28086;SDS011;15392;48.912;8.380;2023-02-10T15:28:42;7.90;;;7.50;;
28086;SDS011;15392;48.912;8.380;2023-02-10T15:33:52;7.68;;;7.07;;
28086;SDS011;15392;48.912;8.380;2023-02-10T15:36:21;8.23;;;7.78;;
28086;SDS011;15392;48.912;8.380;2023-02-10T15:38:58;7.47;;;7.03;;
28086;SDS011;15392;48.912;8.380;2023-02-10T15:41:57;7.97;;;7.47;;
28086;SDS011;15392;48.912;8.380;2023-02-10T15:44:37;8.48;;;7.93;;
28086;SDS011;15392;48.912;8.380;2023-02-10T15:49:41;8.50;;;7.97;;
28086;SDS011;15392;48.912;8.380;2023-02-10T15:52:22;8.55;;;8.00;;
28086;SDS011;15392;48.912;8.380;2023-02-10T15:54:54;9.10;;;8.45;;
28086;SDS011;15392;48.912;8.380;2023-02-10T15:57:24;8.60;;;8.00;;
28086;SDS011;15392;48.912;8.380;2023-02-10T15:59:50;9.38;;;8.77;;
28086;SDS011;15392;48.912;8.380;2023-02-10T16:02:18;9.05;;;8.45;;
28086;SDS011;15392;48.912;8.380;2023-02-10T16:04:45;8.90;;;8.30;;
28086;SDS011;15392;48.912;8.380;2023-02-10T16:07:14;8.02;;;7.53;;
28086;SDS011;15392;48.912;8.380;2023-02-10T16:09:50;8.02;;;7.55;;
28086;SDS011;15392;48.912;8.380;2023-02-10T16:12:17;9.20;;;8.32;;
28086;SDS011;15392;48.912;8.380;2023-02-10T16:14:44;8.30;;;7.80;;
28086;SDS011;15392;48.912;8.380;2023-02-10T16:17:10;8.07;;;7.68;;
28086;SDS011;15392;48.912;8.380;2023-02-10T16:19:45;7.70;;;7.20;;
28086;SDS011;15392;48.912;8.380;2023-02-10T16:22:11;7.22;;;6.82;;
28086;SDS011;15392;48.912;8.380;2023-02-10T16:24:36;7.88;;;7.40;;
28086;SDS011;15392;48.912;8.380;2023-02-10T16:27:02;7.65;;;7.25;;
28086;SDS011;15392;48.912;8.380;2023-02-10T16:29:29;7.43;;;7.03;;
28086;SDS011;15392;48.912;8.380;2023-02-10T16:31:56;7.55;;;7.05;;
28086;SDS011;15392;48.912;8.380;2023-02-10T16:34:22;7.85;;;7.35;;
28086;SDS011;15392;48.912;8.380;2023-02-10T16:36:48;7.25;;;6.85;;
28086;SDS011;15392;48.912;8.380;2023-02-10T16:39:16;8.40;;;7.90;;
28086;SDS011;15392;48.912;8.380;2023-02-10T16:41:45;8.73;;;8.13;;
28086;SDS011;15392;48.912;8.380;2023-02-10T16:44:12;7.82;;;7.43;;
28086;SDS011;15392;48.912;8.380;2023-02-10T16:46:38;10.10;;;9.50;;
28086;SDS011;15392;48.912;8.380;2023-02-10T16:49:04;12.30;;;11.38;;
28086;SDS011;15392;48.912;8.380;2023-02-10T16:51:32;13.65;;;12.65;;
28086;SDS011;15392;48.912;8.380;2023-02-10T16:53:58;12.48;;;11.57;;
28086;SDS011;15392;48.912;8.380;2023-02-10T16:56:24;9.98;;;9.27;;
28086;SDS011;15392;48.912;8.380;2023-02-10T16:58:50;9.27;;;8.68;;
28086;SDS011;15392;48.912;8.380;2023-02-10T17:01:16;8.93;;;8.40;;
28086;SDS011;15392;48.912;8.380;2023-02-10T17:03:43;8.73;;;8.23;;
28086;SDS011;15392;48.912;8.380;2023-02-10T17:06:19;8.23;;;7.72;;
28086;SDS011;15392;48.912;8.380;2023-02-10T17:08:46;7.82;;;7.32;;
28086;SDS011;15392;48.912;8.380;2023-02-10T17:11:12;8.18;;;7.68;;
28086;SDS011;15392;48.912;8.380;2023-02-10T17:13:39;7.10;;;6.72;;